sensor_id;sensor_type;location;lat;lon;timestamp;temperature;humidity
14614;DHT22;7393;51.446;6.800;2023-06-26T00:01:07;25.30;1.00
14614;DHT22;7393;51.446;6.800;2023-06-26T00:03:34;25.40;1.00
14614;DHT22;7393;51.446;6.800;2023-06-26T00:06:01;25.30;1.00
14614;DHT22;7393;51.446;6.800;2023-06-26T00:08:28;25.30;1.00
14614;DHT22;7393;51.446;6.800;2023-06-26T00:10:55;25.30;1.00
14614;DHT22;7393;51.446;6.800;2023-06-26T00:13:22;25.30;1.00
14614;DHT22;7393;51.446;6.800;2023-06-26T00:15:51;25.30;1.00
14614;DHT22;7393;51.446;6.800;2023-06-26T00:18:17;25.20;1.00
14614;DHT22;7393;51.446;6.800;2023-06-26T00:20:44;25.20;1.00
14614;DHT22;7393;51.446;6.800;2023-06-26T00:23:12;25.20;1.00
14614;DHT22;7393;51.446;6.800;2023-06-26T00:25:42;25.20;1.00
14614;DHT22;7393;51.446;6.800;2023-06-26T00:28:09;25.20;1.00
14614;DHT22;7393;51.446;6.800;2023-06-26T00:30:36;25.20;1.00
14614;DHT22;7393;51.446;6.800;2023-06-26T00:33:04;25.20;1.00
14614;DHT22;7393;51.446;6.800;2023-06-26T00:35:31;25.10;1.00
14614;DHT22;7393;51.446;6.800;2023-06-26T00:37:58;25.10;1.00
14614;DHT22;7393;51.446;6.800;2023-06-26T00:40:24;25.10;1.00
14614;DHT22;7393;51.446;6.800;2023-06-26T00:42:52;25.00;1.00
14614;DHT22;7393;51.446;6.800;2023-06-26T00:45:19;25.00;1.00
14614;DHT22;7393;51.446;6.800;2023-06-26T00:47:46;25.00;1.00
14614;DHT22;7393;51.446;6.800;2023-06-26T00:50:14;24.90;1.00
14614;DHT22;7393;51.446;6.800;2023-06-26T00:52:43;24.90;1.00
14614;DHT22;7393;51.446;6.800;2023-06-26T00:55:10;24.90;1.00
14614;DHT22;7393;51.446;6.800;2023-06-26T00:57:37;24.90;1.00
14614;DHT22;7393;51.446;6.800;2023-06-26T01:00:05;24.80;1.00
14614;DHT22;7393;51.446;6.800;2023-06-26T01:02:32;24.80;1.00
14614;DHT22;7393;51.446;6.800;2023-06-26T01:05:00;24.80;1.00
14614;DHT22;7393;51.446;6.800;2023-06-26T01:07:30;24.80;1.00
14614;DHT22;7393;51.446;6.800;2023-06-26T01:09:57;24.80;1.00
14614;DHT22;7393;51.446;6.800;2023-06-26T01:12:25;24.80;1.00
14614;DHT22;7393;51.446;6.800;2023-06-26T01:14:52;24.70;1.00
14614;DHT22;7393;51.446;6.800;2023-06-26T01:17:19;24.70;1.00
14614;DHT22;7393;51.446;6.800;2023-06-26T01:19:46;24.70;1.00
14614;DHT22;7393;51.446;6.800;2023-06-26T01:22:19;24.70;1.00
14614;DHT22;7393;51.446;6.800;2023-06-26T01:25:02;24.60;1.00
14614;DHT22;7393;51.446;6.800;2023-06-26T01:27:32;24.60;1.00
14614;DHT22;7393;51.446;6.800;2023-06-26T01:30:02;24.60;1.00
14614;DHT22;7393;51.446;6.800;2023-06-26T01:32:30;24.50;1.00
14614;DHT22;7393;51.446;6.800;2023-06-26T01:34:57;24.50;1.00
14614;DHT22;7393;51.446;6.800;2023-06-26T01:37:24;24.50;1.00
14614;DHT22;7393;51.446;6.800;2023-06-26T01:39:51;24.50;1.00
14614;DHT22;7393;51.446;6.800;2023-06-26T01:42:18;24.40;1.00
14614;DHT22;7393;51.446;6.800;2023-06-26T01:44:46;24.40;1.00
14614;DHT22;7393;51.446;6.800;2023-06-26T01:47:17;24.30;1.00
14614;DHT22;7393;51.446;6.800;2023-06-26T01:49:47;24.30;1.00
14614;DHT22;7393;51.446;6.800;2023-06-26T01:52:20;24.30;1.00
14614;DHT22;7393;51.446;6.800;2023-06-26T01:54:54;24.30;1.00
14614;DHT22;7393;51.446;6.800;2023-06-26T01:57:23;24.30;1.00
14614;DHT22;7393;51.446;6.800;2023-06-26T01:59:53;24.20;1.00
14614;DHT22;7393;51.446;6.800;2023-06-26T02:02:20;24.20;1.00
14614;DHT22;7393;51.446;6.800;2023-06-26T02:04:49;24.20;1.00
14614;DHT22;7393;51.446;6.800;2023-06-26T02:07:16;24.20;1.00
14614;DHT22;7393;51.446;6.800;2023-06-26T02:09:43;24.10;1.00
14614;DHT22;7393;51.446;6.800;2023-06-26T02:12:10;24.10;1.00
14614;DHT22;7393;51.446;6.800;2023-06-26T02:14:37;24.00;1.00
14614;DHT22;7393;51.446;6.800;2023-06-26T02:17:05;24.00;1.00
14614;DHT22;7393;51.446;6.800;2023-06-26T02:19:34;24.00;1.00
14614;DHT22;7393;51.446;6.800;2023-06-26T02:22:01;23.90;1.00
14614;DHT22;7393;51.446;6.800;2023-06-26T02:24:28;23.80;1.00
14614;DHT22;7393;51.446;6.800;2023-06-26T02:26:55;23.80;1.00
14614;DHT22;7393;51.446;6.800;2023-06-26T02:29:22;23.80;1.00
14614;DHT22;7393;51.446;6.800;2023-06-26T02:31:49;23.70;1.00
14614;DHT22;7393;51.446;6.800;2023-06-26T02:34:17;23.70;1.00
14614;DHT22;7393;51.446;6.800;2023-06-26T02:36:44;23.70;1.00
14614;DHT22;7393;51.446;6.800;2023-06-26T02:39:11;23.70;1.00
14614;DHT22;7393;51.446;6.800;2023-06-26T02:41:38;23.60;1.00
14614;DHT22;7393;51.446;6.800;2023-06-26T02:44:04;23.60;1.00
14614;DHT22;7393;51.446;6.800;2023-06-26T02:46:31;23.50;1.00
14614;DHT22;7393;51.446;6.800;2023-06-26T02:48:59;23.50;1.00
14614;DHT22;7393;51.446;6.800;2023-06-26T02:51:27;23.40;1.00
14614;DHT22;7393;51.446;6.800;2023-06-26T02:53:54;23.40;1.00
14614;DHT22;7393;51.446;6.800;2023-06-26T02:56:20;23.40;1.00
14614;DHT22;7393;51.446;6.800;2023-06-26T02:58:47;23.40;1.00
14614;DHT22;7393;51.446;6.800;2023-06-26T03:01:14;23.40;1.00
14614;DHT22;7393;51.446;6.800;2023-06-26T03:03:41;23.40;1.00
14614;DHT22;7393;51.446;6.800;2023-06-26T03:06:08;23.40;1.00
14614;DHT22;7393;51.446;6.800;2023-06-26T03:08:37;23.40;1.00
14614;DHT22;7393;51.446;6.800;2023-06-26T03:11:04;23.30;1.00
14614;DHT22;7393;51.446;6.800;2023-06-26T03:13:32;23.30;1.00
14614;DHT22;7393;51.446;6.800;2023-06-26T03:15:58;23.30;1.00
14614;DHT22;7393;51.446;6.800;2023-06-26T03:18:25;23.30;1.00
14614;DHT22;7393;51.446;6.800;2023-06-26T03:20:52;23.30;1.00
14614;DHT22;7393;51.446;6.800;2023-06-26T03:23:20;23.30;1.00
14614;DHT22;7393;51.446;6.800;2023-06-26T03:25:49;23.30;1.00
14614;DHT22;7393;51.446;6.800;2023-06-26T03:28:16;23.30;1.00
14614;DHT22;7393;51.446;6.800;2023-06-26T03:30:43;23.30;1.00
14614;DHT22;7393;51.446;6.800;2023-06-26T03:33:10;23.30;1.00
14614;DHT22;7393;51.446;6.800;2023-06-26T03:35:37;23.20;1.00
14614;DHT22;7393;51.446;6.800;2023-06-26T03:38:04;23.30;1.00
14614;DHT22;7393;51.446;6.800;2023-06-26T03:40:31;23.20;1.00
14614;DHT22;7393;51.446;6.800;2023-06-26T03:42:59;23.20;1.00
14614;DHT22;7393;51.446;6.800;2023-06-26T03:45:26;23.20;1.00
14614;DHT22;7393;51.446;6.800;2023-06-26T03:47:53;23.30;1.00
14614;DHT22;7393;51.446;6.800;2023-06-26T03:50:20;23.20;1.00
14614;DHT22;7393;51.446;6.800;2023-06-26T03:52:47;23.20;1.00
14614;DHT22;7393;51.446;6.800;2023-06-26T03:55:15;23.20;1.00
14614;DHT22;7393;51.446;6.800;2023-06-26T03:57:42;23.20;1.00
14614;DHT22;7393;51.446;6.800;2023-06-26T04:00:12;23.20;1.00
14614;DHT22;7393;51.446;6.800;2023-06-26T04:02:39;23.20;1.00
14614;DHT22;7393;51.446;6.800;2023-06-26T04:05:06;23.20;1.00
14614;DHT22;7393;51.446;6.800;2023-06-26T04:07:33;23.20;1.00
14614;DHT22;7393;51.446;6.800;2023-06-26T04:10:00;23.10;1.00
14614;DHT22;7393;51.446;6.800;2023-06-26T04:12:27;23.10;1.00
14614;DHT22;7393;51.446;6.800;2023-06-26T04:14:54;23.10;1.00
14614;DHT22;7393;51.446;6.800;2023-06-26T04:17:22;23.10;1.00
14614;DHT22;7393;51.446;6.800;2023-06-26T04:19:49;23.00;1.00
14614;DHT22;7393;51.446;6.800;2023-06-26T04:22:16;23.00;1.00
14614;DHT22;7393;51.446;6.800;2023-06-26T04:24:42;23.10;1.00
14614;DHT22;7393;51.446;6.800;2023-06-26T04:27:11;23.00;1.00
14614;DHT22;7393;51.446;6.800;2023-06-26T04:29:39;23.00;1.00
14614;DHT22;7393;51.446;6.800;2023-06-26T04:32:06;23.00;1.00
14614;DHT22;7393;51.446;6.800;2023-06-26T04:34:34;23.00;1.00
14614;DHT22;7393;51.446;6.800;2023-06-26T04:37:01;23.00;1.00
14614;DHT22;7393;51.446;6.800;2023-06-26T04:39:29;23.00;1.00
14614;DHT22;7393;51.446;6.800;2023-06-26T04:41:56;23.00;1.00
14614;DHT22;7393;51.446;6.800;2023-06-26T04:44:24;23.00;1.00
14614;DHT22;7393;51.446;6.800;2023-06-26T04:46:51;23.00;1.00
14614;DHT22;7393;51.446;6.800;2023-06-26T04:49:18;23.00;1.00
14614;DHT22;7393;51.446;6.800;2023-06-26T04:51:46;23.00;1.00
14614;DHT22;7393;51.446;6.800;2023-06-26T04:54:14;23.10;1.00
14614;DHT22;7393;51.446;6.800;2023-06-26T04:56:41;23.10;1.00
14614;DHT22;7393;51.446;6.800;2023-06-26T04:59:09;23.10;1.00
14614;DHT22;7393;51.446;6.800;2023-06-26T05:01:38;23.10;1.00
14614;DHT22;7393;51.446;6.800;2023-06-26T05:04:05;23.20;1.00
14614;DHT22;7393;51.446;6.800;2023-06-26T05:06:32;23.20;1.00
14614;DHT22;7393;51.446;6.800;2023-06-26T05:09:00;23.30;1.00
14614;DHT22;7393;51.446;6.800;2023-06-26T05:11:27;23.30;1.00
14614;DHT22;7393;51.446;6.800;2023-06-26T05:13:54;23.30;1.00
14614;DHT22;7393;51.446;6.800;2023-06-26T05:16:21;23.40;1.00
14614;DHT22;7393;51.446;6.800;2023-06-26T05:18:48;23.40;1.00
14614;DHT22;7393;51.446;6.800;2023-06-26T05:21:15;23.50;1.00
14614;DHT22;7393;51.446;6.800;2023-06-26T05:23:43;23.60;1.00
14614;DHT22;7393;51.446;6.800;2023-06-26T05:26:13;23.60;1.00
14614;DHT22;7393;51.446;6.800;2023-06-26T05:28:40;23.60;1.00
14614;DHT22;7393;51.446;6.800;2023-06-26T05:31:10;23.60;1.00
14614;DHT22;7393;51.446;6.800;2023-06-26T05:33:37;23.50;1.00
14614;DHT22;7393;51.446;6.800;2023-06-26T05:36:05;23.50;1.00
14614;DHT22;7393;51.446;6.800;2023-06-26T05:38:34;23.50;1.00
14614;DHT22;7393;51.446;6.800;2023-06-26T05:41:01;23.50;1.00
14614;DHT22;7393;51.446;6.800;2023-06-26T05:43:30;23.50;1.00
14614;DHT22;7393;51.446;6.800;2023-06-26T05:45:57;23.50;1.00
14614;DHT22;7393;51.446;6.800;2023-06-26T05:48:24;23.50;1.00
14614;DHT22;7393;51.446;6.800;2023-06-26T05:50:51;23.60;1.00
14614;DHT22;7393;51.446;6.800;2023-06-26T05:53:18;23.60;1.00
14614;DHT22;7393;51.446;6.800;2023-06-26T05:55:46;23.70;1.00
14614;DHT22;7393;51.446;6.800;2023-06-26T05:58:14;23.70;1.00
14614;DHT22;7393;51.446;6.800;2023-06-26T06:00:44;23.70;1.00
14614;DHT22;7393;51.446;6.800;2023-06-26T06:03:10;23.60;1.00
14614;DHT22;7393;51.446;6.800;2023-06-26T06:05:37;23.60;1.00
14614;DHT22;7393;51.446;6.800;2023-06-26T06:08:04;23.60;1.00
14614;DHT22;7393;51.446;6.800;2023-06-26T06:10:31;23.50;1.00
14614;DHT22;7393;51.446;6.800;2023-06-26T06:12:57;23.50;1.00
14614;DHT22;7393;51.446;6.800;2023-06-26T06:15:24;23.40;1.00
14614;DHT22;7393;51.446;6.800;2023-06-26T06:17:52;23.40;1.00
14614;DHT22;7393;51.446;6.800;2023-06-26T06:20:19;23.40;1.00
14614;DHT22;7393;51.446;6.800;2023-06-26T06:22:46;23.40;1.00
14614;DHT22;7393;51.446;6.800;2023-06-26T06:25:14;23.30;1.00
14614;DHT22;7393;51.446;6.800;2023-06-26T06:27:41;23.30;1.00
14614;DHT22;7393;51.446;6.800;2023-06-26T06:30:09;23.30;1.00
14614;DHT22;7393;51.446;6.800;2023-06-26T06:32:36;23.30;1.00
14614;DHT22;7393;51.446;6.800;2023-06-26T06:35:05;23.30;1.00
14614;DHT22;7393;51.446;6.800;2023-06-26T06:37:35;23.30;1.00
14614;DHT22;7393;51.446;6.800;2023-06-26T06:40:02;23.30;1.00
14614;DHT22;7393;51.446;6.800;2023-06-26T06:42:31;23.30;1.00
14614;DHT22;7393;51.446;6.800;2023-06-26T06:44:58;23.40;1.00
14614;DHT22;7393;51.446;6.800;2023-06-26T06:47:24;23.40;1.00
14614;DHT22;7393;51.446;6.800;2023-06-26T06:49:51;23.40;1.00
14614;DHT22;7393;51.446;6.800;2023-06-26T06:52:20;23.40;1.00
14614;DHT22;7393;51.446;6.800;2023-06-26T06:54:54;23.40;1.00
14614;DHT22;7393;51.446;6.800;2023-06-26T06:57:21;23.40;1.00
14614;DHT22;7393;51.446;6.800;2023-06-26T06:59:48;23.50;1.00
14614;DHT22;7393;51.446;6.800;2023-06-26T07:02:17;23.50;1.00
14614;DHT22;7393;51.446;6.800;2023-06-26T07:04:43;23.60;1.00
14614;DHT22;7393;51.446;6.800;2023-06-26T07:07:11;23.60;1.00
14614;DHT22;7393;51.446;6.800;2023-06-26T07:09:40;23.70;1.00
14614;DHT22;7393;51.446;6.800;2023-06-26T07:12:07;23.70;1.00
14614;DHT22;7393;51.446;6.800;2023-06-26T07:14:34;23.70;1.00
14614;DHT22;7393;51.446;6.800;2023-06-26T07:17:01;23.80;1.00
14614;DHT22;7393;51.446;6.800;2023-06-26T07:19:27;23.90;1.00
14614;DHT22;7393;51.446;6.800;2023-06-26T07:21:54;23.80;1.00
14614;DHT22;7393;51.446;6.800;2023-06-26T07:24:21;23.90;1.00
14614;DHT22;7393;51.446;6.800;2023-06-26T07:26:49;23.90;1.00
14614;DHT22;7393;51.446;6.800;2023-06-26T07:29:16;23.90;1.00
14614;DHT22;7393;51.446;6.800;2023-06-26T07:31:43;24.00;1.00
14614;DHT22;7393;51.446;6.800;2023-06-26T07:34:10;24.00;1.00
14614;DHT22;7393;51.446;6.800;2023-06-26T07:36:37;24.00;1.00
14614;DHT22;7393;51.446;6.800;2023-06-26T07:39:04;24.00;1.00
14614;DHT22;7393;51.446;6.800;2023-06-26T07:41:31;24.10;1.00
14614;DHT22;7393;51.446;6.800;2023-06-26T07:43:59;24.20;1.00
14614;DHT22;7393;51.446;6.800;2023-06-26T07:46:26;24.20;1.00
14614;DHT22;7393;51.446;6.800;2023-06-26T07:48:53;24.20;1.00
14614;DHT22;7393;51.446;6.800;2023-06-26T07:51:20;24.20;1.00
14614;DHT22;7393;51.446;6.800;2023-06-26T07:53:47;24.20;1.00
14614;DHT22;7393;51.446;6.800;2023-06-26T07:56:14;24.20;1.00
14614;DHT22;7393;51.446;6.800;2023-06-26T07:58:41;24.30;1.00
14614;DHT22;7393;51.446;6.800;2023-06-26T08:01:09;24.40;1.00
14614;DHT22;7393;51.446;6.800;2023-06-26T08:03:36;24.40;1.00
14614;DHT22;7393;51.446;6.800;2023-06-26T08:06:03;24.40;1.00
14614;DHT22;7393;51.446;6.800;2023-06-26T08:08:30;24.40;1.00
14614;DHT22;7393;51.446;6.800;2023-06-26T08:10:57;24.40;1.00
14614;DHT22;7393;51.446;6.800;2023-06-26T08:13:24;24.40;1.00
14614;DHT22;7393;51.446;6.800;2023-06-26T08:15:51;24.50;1.00
14614;DHT22;7393;51.446;6.800;2023-06-26T08:18:19;24.50;1.00
14614;DHT22;7393;51.446;6.800;2023-06-26T08:20:46;24.50;1.00
14614;DHT22;7393;51.446;6.800;2023-06-26T08:23:13;24.50;1.00
14614;DHT22;7393;51.446;6.800;2023-06-26T08:25:40;24.60;1.00
14614;DHT22;7393;51.446;6.800;2023-06-26T08:28:06;24.50;1.00
14614;DHT22;7393;51.446;6.800;2023-06-26T08:30:33;24.50;1.00
14614;DHT22;7393;51.446;6.800;2023-06-26T08:33:00;24.50;1.00
14614;DHT22;7393;51.446;6.800;2023-06-26T08:35:28;24.50;1.00
14614;DHT22;7393;51.446;6.800;2023-06-26T08:37:55;24.50;1.00
14614;DHT22;7393;51.446;6.800;2023-06-26T08:40:22;24.60;1.00
14614;DHT22;7393;51.446;6.800;2023-06-26T08:42:49;24.80;1.00
14614;DHT22;7393;51.446;6.800;2023-06-26T08:45:18;24.80;1.00
14614;DHT22;7393;51.446;6.800;2023-06-26T08:47:46;24.80;1.00
14614;DHT22;7393;51.446;6.800;2023-06-26T08:50:16;24.90;1.00
14614;DHT22;7393;51.446;6.800;2023-06-26T08:52:53;25.10;1.00
14614;DHT22;7393;51.446;6.800;2023-06-26T08:55:21;25.20;1.00
14614;DHT22;7393;51.446;6.800;2023-06-26T08:57:50;25.20;1.00
14614;DHT22;7393;51.446;6.800;2023-06-26T09:00:18;25.10;1.00
14614;DHT22;7393;51.446;6.800;2023-06-26T09:02:45;25.10;1.00
14614;DHT22;7393;51.446;6.800;2023-06-26T09:05:12;25.20;1.00
14614;DHT22;7393;51.446;6.800;2023-06-26T09:07:39;25.30;1.00
14614;DHT22;7393;51.446;6.800;2023-06-26T09:10:08;25.40;1.00
14614;DHT22;7393;51.446;6.800;2023-06-26T09:12:36;25.40;1.00
14614;DHT22;7393;51.446;6.800;2023-06-26T09:15:05;25.40;1.00
14614;DHT22;7393;51.446;6.800;2023-06-26T09:17:39;25.40;1.00
14614;DHT22;7393;51.446;6.800;2023-06-26T09:20:06;25.40;1.00
14614;DHT22;7393;51.446;6.800;2023-06-26T09:22:37;25.50;1.00
14614;DHT22;7393;51.446;6.800;2023-06-26T09:25:05;25.70;1.00
14614;DHT22;7393;51.446;6.800;2023-06-26T09:27:34;25.80;1.00
14614;DHT22;7393;51.446;6.800;2023-06-26T09:30:02;26.00;1.00
14614;DHT22;7393;51.446;6.800;2023-06-26T09:32:29;26.10;1.00
14614;DHT22;7393;51.446;6.800;2023-06-26T09:34:56;26.20;1.00
14614;DHT22;7393;51.446;6.800;2023-06-26T09:37:23;26.20;1.00
14614;DHT22;7393;51.446;6.800;2023-06-26T09:39:51;26.30;1.00
14614;DHT22;7393;51.446;6.800;2023-06-26T09:42:18;26.30;1.00
14614;DHT22;7393;51.446;6.800;2023-06-26T09:44:47;26.50;1.00
14614;DHT22;7393;51.446;6.800;2023-06-26T09:47:16;26.60;1.00
14614;DHT22;7393;51.446;6.800;2023-06-26T09:49:43;26.60;1.00
14614;DHT22;7393;51.446;6.800;2023-06-26T09:52:14;26.60;1.00
14614;DHT22;7393;51.446;6.800;2023-06-26T09:54:42;26.60;1.00
14614;DHT22;7393;51.446;6.800;2023-06-26T09:57:11;26.70;1.00
14614;DHT22;7393;51.446;6.800;2023-06-26T09:59:38;26.70;1.00
14614;DHT22;7393;51.446;6.800;2023-06-26T10:02:07;26.90;1.00
14614;DHT22;7393;51.446;6.800;2023-06-26T10:04:35;27.10;1.00
14614;DHT22;7393;51.446;6.800;2023-06-26T10:07:04;27.20;1.00
14614;DHT22;7393;51.446;6.800;2023-06-26T10:09:33;27.40;1.00
14614;DHT22;7393;51.446;6.800;2023-06-26T10:12:03;27.60;1.00
14614;DHT22;7393;51.446;6.800;2023-06-26T10:14:34;27.70;1.00
14614;DHT22;7393;51.446;6.800;2023-06-26T10:17:04;27.60;1.00
14614;DHT22;7393;51.446;6.800;2023-06-26T10:19:35;27.60;1.00
14614;DHT22;7393;51.446;6.800;2023-06-26T10:22:04;27.60;1.00
14614;DHT22;7393;51.446;6.800;2023-06-26T10:24:33;27.70;1.00
14614;DHT22;7393;51.446;6.800;2023-06-26T10:27:04;27.80;1.00
14614;DHT22;7393;51.446;6.800;2023-06-26T10:29:35;27.80;1.00
14614;DHT22;7393;51.446;6.800;2023-06-26T10:32:04;27.90;1.00
14614;DHT22;7393;51.446;6.800;2023-06-26T10:34:35;28.00;1.00
14614;DHT22;7393;51.446;6.800;2023-06-26T10:37:02;27.90;1.00
14614;DHT22;7393;51.446;6.800;2023-06-26T10:39:46;27.90;1.00
14614;DHT22;7393;51.446;6.800;2023-06-26T10:42:13;28.00;1.00
14614;DHT22;7393;51.446;6.800;2023-06-26T10:44:41;27.90;1.00
14614;DHT22;7393;51.446;6.800;2023-06-26T10:47:10;27.80;1.00
14614;DHT22;7393;51.446;6.800;2023-06-26T10:49:38;27.90;1.00
14614;DHT22;7393;51.446;6.800;2023-06-26T10:52:06;28.00;1.00
14614;DHT22;7393;51.446;6.800;2023-06-26T10:54:33;28.10;1.00
14614;DHT22;7393;51.446;6.800;2023-06-26T10:57:01;28.20;1.00
14614;DHT22;7393;51.446;6.800;2023-06-26T10:59:29;28.30;1.00
14614;DHT22;7393;51.446;6.800;2023-06-26T11:01:57;28.20;1.00
14614;DHT22;7393;51.446;6.800;2023-06-26T11:04:39;28.20;1.00
14614;DHT22;7393;51.446;6.800;2023-06-26T11:07:19;28.10;1.00
14614;DHT22;7393;51.446;6.800;2023-06-26T11:09:57;27.90;1.00
14614;DHT22;7393;51.446;6.800;2023-06-26T11:12:37;27.60;1.00
14614;DHT22;7393;51.446;6.800;2023-06-26T11:15:08;27.50;1.00
14614;DHT22;7393;51.446;6.800;2023-06-26T11:17:35;27.50;1.00
14614;DHT22;7393;51.446;6.800;2023-06-26T11:20:04;27.60;1.00
14614;DHT22;7393;51.446;6.800;2023-06-26T11:22:35;27.90;1.00
14614;DHT22;7393;51.446;6.800;2023-06-26T11:25:03;28.00;1.00
14614;DHT22;7393;51.446;6.800;2023-06-26T11:27:31;28.00;1.00
14614;DHT22;7393;51.446;6.800;2023-06-26T11:29:58;28.00;1.00
14614;DHT22;7393;51.446;6.800;2023-06-26T11:32:26;28.00;1.00
14614;DHT22;7393;51.446;6.800;2023-06-26T11:34:54;27.90;1.00
14614;DHT22;7393;51.446;6.800;2023-06-26T11:37:22;27.80;1.00
14614;DHT22;7393;51.446;6.800;2023-06-26T11:39:49;27.80;1.00
14614;DHT22;7393;51.446;6.800;2023-06-26T11:42:16;27.80;1.00
14614;DHT22;7393;51.446;6.800;2023-06-26T11:44:43;27.90;1.00
14614;DHT22;7393;51.446;6.800;2023-06-26T11:47:13;28.00;1.00
14614;DHT22;7393;51.446;6.800;2023-06-26T11:49:42;28.00;1.00
14614;DHT22;7393;51.446;6.800;2023-06-26T11:52:09;28.10;1.00
14614;DHT22;7393;51.446;6.800;2023-06-26T11:54:37;28.10;1.00
14614;DHT22;7393;51.446;6.800;2023-06-26T11:57:04;28.20;1.00
14614;DHT22;7393;51.446;6.800;2023-06-26T11:59:33;28.10;1.00
14614;DHT22;7393;51.446;6.800;2023-06-26T12:02:04;28.10;1.00
14614;DHT22;7393;51.446;6.800;2023-06-26T12:04:32;28.10;1.00
14614;DHT22;7393;51.446;6.800;2023-06-26T12:06:59;28.00;1.00
14614;DHT22;7393;51.446;6.800;2023-06-26T12:09:29;28.00;1.00
14614;DHT22;7393;51.446;6.800;2023-06-26T12:12:01;28.00;1.00
14614;DHT22;7393;51.446;6.800;2023-06-26T12:14:28;28.10;1.00
14614;DHT22;7393;51.446;6.800;2023-06-26T12:16:56;28.30;1.00
14614;DHT22;7393;51.446;6.800;2023-06-26T12:19:26;28.50;1.00
14614;DHT22;7393;51.446;6.800;2023-06-26T12:21:53;28.60;1.00
14614;DHT22;7393;51.446;6.800;2023-06-26T12:24:23;28.80;1.00
14614;DHT22;7393;51.446;6.800;2023-06-26T12:26:52;29.00;1.00
14614;DHT22;7393;51.446;6.800;2023-06-26T12:29:29;29.20;1.00
14614;DHT22;7393;51.446;6.800;2023-06-26T12:31:57;29.10;1.00
14614;DHT22;7393;51.446;6.800;2023-06-26T12:34:27;29.00;1.00
14614;DHT22;7393;51.446;6.800;2023-06-26T12:36:58;29.00;1.00
14614;DHT22;7393;51.446;6.800;2023-06-26T12:39:25;28.90;1.00
14614;DHT22;7393;51.446;6.800;2023-06-26T12:41:54;28.80;1.00
14614;DHT22;7393;51.446;6.800;2023-06-26T12:44:25;28.80;1.00
14614;DHT22;7393;51.446;6.800;2023-06-26T12:46:55;28.90;1.00
14614;DHT22;7393;51.446;6.800;2023-06-26T12:49:29;28.90;1.00
14614;DHT22;7393;51.446;6.800;2023-06-26T12:51:57;28.90;1.00
14614;DHT22;7393;51.446;6.800;2023-06-26T12:54:24;28.90;1.00
14614;DHT22;7393;51.446;6.800;2023-06-26T12:56:50;29.00;1.00
14614;DHT22;7393;51.446;6.800;2023-06-26T12:59:17;29.10;1.00
14614;DHT22;7393;51.446;6.800;2023-06-26T13:01:45;29.20;1.00
14614;DHT22;7393;51.446;6.800;2023-06-26T13:04:12;29.30;1.00
14614;DHT22;7393;51.446;6.800;2023-06-26T13:06:39;29.40;1.00
14614;DHT22;7393;51.446;6.800;2023-06-26T13:09:06;29.40;1.00
14614;DHT22;7393;51.446;6.800;2023-06-26T13:11:33;29.50;1.00
14614;DHT22;7393;51.446;6.800;2023-06-26T13:14:01;29.60;1.00
14614;DHT22;7393;51.446;6.800;2023-06-26T13:16:28;29.60;1.00
14614;DHT22;7393;51.446;6.800;2023-06-26T13:18:58;29.70;1.00
14614;DHT22;7393;51.446;6.800;2023-06-26T13:21:25;29.80;1.00
14614;DHT22;7393;51.446;6.800;2023-06-26T13:23:52;29.90;1.00
14614;DHT22;7393;51.446;6.800;2023-06-26T13:26:19;29.80;1.00
14614;DHT22;7393;51.446;6.800;2023-06-26T13:28:47;29.80;1.00
14614;DHT22;7393;51.446;6.800;2023-06-26T13:31:13;29.70;1.00
14614;DHT22;7393;51.446;6.800;2023-06-26T13:33:40;29.70;1.00
14614;DHT22;7393;51.446;6.800;2023-06-26T13:36:09;29.50;1.00
14614;DHT22;7393;51.446;6.800;2023-06-26T13:38:35;29.50;1.00
14614;DHT22;7393;51.446;6.800;2023-06-26T13:41:02;29.30;1.00
14614;DHT22;7393;51.446;6.800;2023-06-26T13:43:29;29.20;1.00
14614;DHT22;7393;51.446;6.800;2023-06-26T13:45:56;29.30;1.00
14614;DHT22;7393;51.446;6.800;2023-06-26T13:48:23;29.30;1.00
14614;DHT22;7393;51.446;6.800;2023-06-26T13:50:51;29.40;1.00
14614;DHT22;7393;51.446;6.800;2023-06-26T13:53:20;29.40;1.00
14614;DHT22;7393;51.446;6.800;2023-06-26T13:55:47;29.40;1.00
14614;DHT22;7393;51.446;6.800;2023-06-26T13:58:14;29.50;1.00
14614;DHT22;7393;51.446;6.800;2023-06-26T14:00:41;29.50;1.00
14614;DHT22;7393;51.446;6.800;2023-06-26T14:03:10;29.50;1.00
14614;DHT22;7393;51.446;6.800;2023-06-26T14:05:37;29.60;1.00
14614;DHT22;7393;51.446;6.800;2023-06-26T14:08:06;29.60;1.00
14614;DHT22;7393;51.446;6.800;2023-06-26T14:10:34;29.60;1.00
14614;DHT22;7393;51.446;6.800;2023-06-26T14:13:02;29.50;1.00
14614;DHT22;7393;51.446;6.800;2023-06-26T14:15:29;29.50;1.00
14614;DHT22;7393;51.446;6.800;2023-06-26T14:17:55;29.50;1.00
14614;DHT22;7393;51.446;6.800;2023-06-26T14:20:22;29.50;1.00
14614;DHT22;7393;51.446;6.800;2023-06-26T14:22:50;29.50;1.00
14614;DHT22;7393;51.446;6.800;2023-06-26T14:25:17;29.50;1.00
14614;DHT22;7393;51.446;6.800;2023-06-26T14:27:45;29.40;1.00
14614;DHT22;7393;51.446;6.800;2023-06-26T14:30:12;29.50;1.00
14614;DHT22;7393;51.446;6.800;2023-06-26T14:32:39;29.50;1.00
14614;DHT22;7393;51.446;6.800;2023-06-26T14:35:06;29.40;1.00
14614;DHT22;7393;51.446;6.800;2023-06-26T14:37:35;29.20;1.00
14614;DHT22;7393;51.446;6.800;2023-06-26T14:40:02;29.10;1.00
14614;DHT22;7393;51.446;6.800;2023-06-26T14:42:29;29.00;1.00
14614;DHT22;7393;51.446;6.800;2023-06-26T14:44:57;29.00;1.00
14614;DHT22;7393;51.446;6.800;2023-06-26T14:47:24;28.80;1.00
14614;DHT22;7393;51.446;6.800;2023-06-26T14:49:51;28.80;1.00
14614;DHT22;7393;51.446;6.800;2023-06-26T14:52:17;28.70;1.00
14614;DHT22;7393;51.446;6.800;2023-06-26T14:54:44;28.50;1.00
14614;DHT22;7393;51.446;6.800;2023-06-26T14:57:11;28.40;1.00
14614;DHT22;7393;51.446;6.800;2023-06-26T14:59:38;28.40;1.00
14614;DHT22;7393;51.446;6.800;2023-06-26T15:02:06;28.30;1.00
14614;DHT22;7393;51.446;6.800;2023-06-26T15:04:33;28.20;1.00
14614;DHT22;7393;51.446;6.800;2023-06-26T15:06:59;28.20;1.00
14614;DHT22;7393;51.446;6.800;2023-06-26T15:09:26;28.00;1.00
14614;DHT22;7393;51.446;6.800;2023-06-26T15:11:53;27.90;1.00
14614;DHT22;7393;51.446;6.800;2023-06-26T15:14:20;27.80;1.00
14614;DHT22;7393;51.446;6.800;2023-06-26T15:16:46;27.80;1.00
14614;DHT22;7393;51.446;6.800;2023-06-26T15:19:15;27.60;1.00
14614;DHT22;7393;51.446;6.800;2023-06-26T15:21:41;27.50;1.00
14614;DHT22;7393;51.446;6.800;2023-06-26T15:24:08;27.60;1.00
14614;DHT22;7393;51.446;6.800;2023-06-26T15:26:35;27.50;1.00
14614;DHT22;7393;51.446;6.800;2023-06-26T15:29:02;27.50;1.00
14614;DHT22;7393;51.446;6.800;2023-06-26T15:31:29;27.40;1.00
14614;DHT22;7393;51.446;6.800;2023-06-26T15:33:57;27.40;1.00
14614;DHT22;7393;51.446;6.800;2023-06-26T15:36:26;27.40;1.00
14614;DHT22;7393;51.446;6.800;2023-06-26T15:38:52;27.30;1.00
14614;DHT22;7393;51.446;6.800;2023-06-26T15:41:19;27.20;1.00
14614;DHT22;7393;51.446;6.800;2023-06-26T15:43:46;27.10;1.00
14614;DHT22;7393;51.446;6.800;2023-06-26T15:46:13;27.00;1.00
14614;DHT22;7393;51.446;6.800;2023-06-26T15:48:39;26.90;1.00
14614;DHT22;7393;51.446;6.800;2023-06-26T15:51:06;26.80;1.00
14614;DHT22;7393;51.446;6.800;2023-06-26T15:53:36;26.70;1.00
14614;DHT22;7393;51.446;6.800;2023-06-26T15:56:06;26.70;1.00
14614;DHT22;7393;51.446;6.800;2023-06-26T15:58:35;26.60;1.00
14614;DHT22;7393;51.446;6.800;2023-06-26T16:01:07;26.60;1.00
14614;DHT22;7393;51.446;6.800;2023-06-26T16:03:34;26.50;1.00
14614;DHT22;7393;51.446;6.800;2023-06-26T16:06:01;26.40;1.00